N646CB KLAS-KLAX
Flight info
| Callsign | N646CB |
|---|---|
| Flight time | 0h 51m |
| Altitude | 24000 |
| Route | RADYR2 BLAQQ SHTNR ANJLL4 |
| Aircraft | A319/M-VGDW/C |
Departure
| Time | 2026-05-04 01:15 |
|---|---|
| Airport | Harry Reid International Airport (KLAS) |
Arrival
| Time | 2026-05-04 02:06 |
|---|---|
| Airport | Los Angeles International Airport (KLAX) |
| Time | Latitude | Longitude | Altitude | Speed | Heading |
|---|---|---|---|---|---|
| 2026-05-04 00:37 | 36.08136 | -115.14790 | 2188 ft | 0 kts | 62° |
| 2026-05-04 00:55 | 36.08133 | -115.14796 | 2188 ft | 3 kts | 62° |
| 2026-05-04 00:55 | 36.08124 | -115.14816 | 2189 ft | 3 kts | 62° |
| 2026-05-04 00:55 | 36.08116 | -115.14836 | 2190 ft | 3 kts | 93° |
| 2026-05-04 00:55 | 36.08125 | -115.14853 | 2188 ft | 3 kts | 177° |
| 2026-05-04 00:56 | 36.08130 | -115.14853 | 2188 ft | 0 kts | 198° |
| 2026-05-04 01:00 | 36.08120 | -115.14854 | 2188 ft | 4 kts | 181° |
| 2026-05-04 01:01 | 36.08088 | -115.14841 | 2188 ft | 9 kts | 153° |
| 2026-05-04 01:01 | 36.08012 | -115.14798 | 2189 ft | 15 kts | 155° |
| 2026-05-04 01:01 | 36.07939 | -115.14756 | 2188 ft | 8 kts | 156° |
| 2026-05-04 01:01 | 36.07901 | -115.14735 | 2190 ft | 4 kts | 155° |
| 2026-05-04 01:02 | 36.07884 | -115.14725 | 2188 ft | 2 kts | 153° |
| 2026-05-04 01:02 | 36.07856 | -115.14699 | 2188 ft | 9 kts | 127° |
| 2026-05-04 01:02 | 36.07845 | -115.14591 | 2187 ft | 16 kts | 95° |
| 2026-05-04 01:02 | 36.07833 | -115.14440 | 2188 ft | 16 kts | 95° |
| 2026-05-04 01:03 | 36.07828 | -115.14338 | 2189 ft | 10 kts | 92° |
| 2026-05-04 01:03 | 36.07827 | -115.14253 | 2189 ft | 10 kts | 90° |
| 2026-05-04 01:03 | 36.07827 | -115.14163 | 2187 ft | 11 kts | 90° |
| 2026-05-04 01:03 | 36.07827 | -115.14065 | 2189 ft | 12 kts | 90° |
| 2026-05-04 01:04 | 36.07827 | -115.13960 | 2188 ft | 13 kts | 90° |
| 2026-05-04 01:04 | 36.07827 | -115.13850 | 2192 ft | 13 kts | 89° |
| 2026-05-04 01:04 | 36.07828 | -115.13735 | 2188 ft | 13 kts | 90° |
| 2026-05-04 01:04 | 36.07827 | -115.13644 | 2188 ft | 0 kts | 90° |
| 2026-05-04 01:09 | 36.07827 | -115.13643 | 2188 ft | 2 kts | 90° |
| 2026-05-04 01:09 | 36.07827 | -115.13522 | 2191 ft | 23 kts | 89° |
| 2026-05-04 01:09 | 36.07828 | -115.13305 | 2189 ft | 24 kts | 89° |
| 2026-05-04 01:09 | 36.07828 | -115.13109 | 2188 ft | 19 kts | 90° |
| 2026-05-04 01:10 | 36.07828 | -115.12995 | 2190 ft | 10 kts | 89° |
| 2026-05-04 01:10 | 36.07829 | -115.12926 | 2190 ft | 6 kts | 89° |
| 2026-05-04 01:10 | 36.07829 | -115.12875 | 2188 ft | 7 kts | 91° |
| 2026-05-04 01:10 | 36.07828 | -115.12776 | 2188 ft | 15 kts | 90° |
| 2026-05-04 01:11 | 36.07829 | -115.12636 | 2187 ft | 18 kts | 90° |
| 2026-05-04 01:11 | 36.07828 | -115.12496 | 2188 ft | 15 kts | 90° |
| 2026-05-04 01:11 | 36.07829 | -115.12369 | 2188 ft | 14 kts | 90° |
| 2026-05-04 01:11 | 36.07819 | -115.12258 | 2188 ft | 12 kts | 117° |
| 2026-05-04 01:12 | 36.07780 | -115.12194 | 2188 ft | 6 kts | 129° |
| 2026-05-04 01:12 | 36.07761 | -115.12165 | 2188 ft | 2 kts | 128° |
| 2026-05-04 01:12 | 36.07760 | -115.12164 | 2188 ft | 0 kts | 128° |
| 2026-05-04 01:13 | 36.07740 | -115.12140 | 2188 ft | 16 kts | 144° |
| 2026-05-04 01:13 | 36.07646 | -115.12166 | 2192 ft | 12 kts | 255° |
| 2026-05-04 01:13 | 36.07643 | -115.12274 | 2189 ft | 14 kts | 270° |
| 2026-05-04 01:14 | 36.07641 | -115.12555 | 2189 ft | 61 kts | 269° |
| 2026-05-04 01:14 | 36.07640 | -115.13325 | 2191 ft | 118 kts | 269° |
| 2026-05-04 01:14 | 36.07636 | -115.14562 | 2193 ft | 169 kts | 267° |
| 2026-05-04 01:14 | 36.07696 | -115.16102 | 2718 ft | 185 kts | 269° |
| 2026-05-04 01:15 | 36.07819 | -115.17744 | 3284 ft | 197 kts | 269° |
| 2026-05-04 01:15 | 36.08031 | -115.19419 | 3862 ft | 200 kts | 274° |
| 2026-05-04 01:15 | 36.08217 | -115.20544 | 4286 ft | 202 kts | 275° |
| 2026-05-04 01:15 | 36.08499 | -115.22271 | 4905 ft | 207 kts | 275° |
| 2026-05-04 01:16 | 36.08771 | -115.24616 | 5784 ft | 204 kts | 265° |
| 2026-05-04 01:16 | 36.08716 | -115.25769 | 6219 ft | 202 kts | 256° |
| 2026-05-04 01:16 | 36.08257 | -115.27385 | 6776 ft | 201 kts | 233° |
| 2026-05-04 01:16 | 36.07211 | -115.28564 | 7175 ft | 211 kts | 213° |
| 2026-05-04 01:17 | 36.05446 | -115.29915 | 7573 ft | 233 kts | 209° |
| 2026-05-04 01:17 | 36.04041 | -115.30887 | 8077 ft | 230 kts | 208° |
| 2026-05-04 01:17 | 36.02628 | -115.31872 | 8630 ft | 236 kts | 208° |
| 2026-05-04 01:17 | 36.01181 | -115.32871 | 9148 ft | 238 kts | 208° |
| 2026-05-04 01:18 | 36.00223 | -115.33521 | 9530 ft | 237 kts | 208° |
| 2026-05-04 01:18 | 35.98772 | -115.34470 | 9996 ft | 240 kts | 207° |
| 2026-05-04 01:18 | 35.97284 | -115.35418 | 10490 ft | 239 kts | 207° |
| 2026-05-04 01:18 | 35.95808 | -115.36355 | 10946 ft | 240 kts | 207° |
| 2026-05-04 01:19 | 35.94306 | -115.37308 | 11444 ft | 246 kts | 207° |
| 2026-05-04 01:19 | 35.92746 | -115.38300 | 11889 ft | 262 kts | 207° |
| 2026-05-04 01:19 | 35.91112 | -115.39420 | 12221 ft | 271 kts | 210° |
| 2026-05-04 01:19 | 35.89523 | -115.40736 | 12375 ft | 278 kts | 212° |
| 2026-05-04 01:20 | 35.88042 | -115.42234 | 12866 ft | 277 kts | 227° |
| 2026-05-04 01:20 | 35.86854 | -115.44125 | 13561 ft | 279 kts | 231° |
| 2026-05-04 01:20 | 35.85707 | -115.46077 | 14179 ft | 283 kts | 231° |
| 2026-05-04 01:20 | 35.84550 | -115.48043 | 14900 ft | 284 kts | 231° |
| 2026-05-04 01:21 | 35.83366 | -115.50007 | 15553 ft | 288 kts | 230° |
| 2026-05-04 01:21 | 35.82130 | -115.51979 | 16181 ft | 293 kts | 230° |
| 2026-05-04 01:21 | 35.80859 | -115.53948 | 16891 ft | 293 kts | 230° |
| 2026-05-04 01:21 | 35.79580 | -115.55891 | 17516 ft | 299 kts | 230° |
| 2026-05-04 01:22 | 35.78248 | -115.57884 | 18153 ft | 301 kts | 229° |
| 2026-05-04 01:22 | 35.76912 | -115.59853 | 18561 ft | 298 kts | 229° |
| 2026-05-04 01:22 | 35.75568 | -115.61814 | 18793 ft | 302 kts | 229° |
| 2026-05-04 01:22 | 35.74196 | -115.63802 | 18899 ft | 305 kts | 229° |
| 2026-05-04 01:23 | 35.72823 | -115.65781 | 18954 ft | 302 kts | 230° |
| 2026-05-04 01:23 | 35.71446 | -115.67753 | 18973 ft | 311 kts | 230° |
| 2026-05-04 01:23 | 35.69998 | -115.69826 | 18985 ft | 323 kts | 230° |
| 2026-05-04 01:23 | 35.68540 | -115.71911 | 18984 ft | 319 kts | 229° |
| 2026-05-04 01:24 | 35.67099 | -115.73969 | 18993 ft | 317 kts | 229° |
| 2026-05-04 01:24 | 35.65655 | -115.76025 | 18990 ft | 318 kts | 229° |
| 2026-05-04 01:24 | 35.64201 | -115.78088 | 18984 ft | 319 kts | 229° |
| 2026-05-04 01:24 | 35.62748 | -115.80148 | 18983 ft | 317 kts | 229° |
| 2026-05-04 01:25 | 35.61303 | -115.82191 | 18979 ft | 317 kts | 229° |
| 2026-05-04 01:25 | 35.59852 | -115.84240 | 18982 ft | 318 kts | 229° |
| 2026-05-04 01:25 | 35.58486 | -115.86374 | 18970 ft | 318 kts | 241° |
| 2026-05-04 01:25 | 35.57598 | -115.88870 | 18978 ft | 318 kts | 248° |
| 2026-05-04 01:26 | 35.56869 | -115.91425 | 18971 ft | 317 kts | 250° |
| 2026-05-04 01:26 | 35.56181 | -115.94004 | 18973 ft | 319 kts | 250° |
| 2026-05-04 01:26 | 35.55519 | -115.96577 | 18985 ft | 317 kts | 250° |
| 2026-05-04 01:26 | 35.54881 | -115.99144 | 18983 ft | 312 kts | 251° |
| 2026-05-04 01:27 | 35.54252 | -116.01704 | 18974 ft | 314 kts | 251° |
| 2026-05-04 01:27 | 35.53619 | -116.04285 | 18973 ft | 316 kts | 251° |
| 2026-05-04 01:27 | 35.52986 | -116.06867 | 19024 ft | 315 kts | 251° |
| 2026-05-04 01:27 | 35.52350 | -116.09449 | 19188 ft | 316 kts | 251° |
| 2026-05-04 01:28 | 35.51717 | -116.12020 | 19681 ft | 313 kts | 251° |
| 2026-05-04 01:28 | 35.51089 | -116.14556 | 20356 ft | 309 kts | 251° |
| 2026-05-04 01:28 | 35.50461 | -116.17062 | 21092 ft | 305 kts | 251° |
| 2026-05-04 01:28 | 35.49835 | -116.19539 | 21802 ft | 303 kts | 251° |
| 2026-05-04 01:29 | 35.49205 | -116.21999 | 22484 ft | 300 kts | 251° |
| 2026-05-04 01:29 | 35.48568 | -116.24430 | 23097 ft | 299 kts | 251° |
| 2026-05-04 01:29 | 35.47945 | -116.26807 | 23419 ft | 293 kts | 250° |
| 2026-05-04 01:29 | 35.47325 | -116.29199 | 23533 ft | 297 kts | 251° |
| 2026-05-04 01:30 | 35.46690 | -116.31638 | 23651 ft | 304 kts | 251° |
| 2026-05-04 01:30 | 35.46039 | -116.34129 | 23711 ft | 307 kts | 251° |
| 2026-05-04 01:30 | 35.45386 | -116.36622 | 23740 ft | 305 kts | 251° |
| 2026-05-04 01:30 | 35.44739 | -116.39087 | 23756 ft | 302 kts | 251° |
| 2026-05-04 01:31 | 35.44095 | -116.41540 | 23766 ft | 302 kts | 251° |
| 2026-05-04 01:31 | 35.43449 | -116.43995 | 23773 ft | 303 kts | 251° |
| 2026-05-04 01:31 | 35.42799 | -116.46457 | 23775 ft | 303 kts | 251° |
| 2026-05-04 01:31 | 35.42151 | -116.48908 | 23785 ft | 302 kts | 251° |
| 2026-05-04 01:32 | 35.41499 | -116.51365 | 23797 ft | 302 kts | 251° |
| 2026-05-04 01:32 | 35.40849 | -116.53814 | 23798 ft | 303 kts | 251° |
| 2026-05-04 01:32 | 35.40066 | -116.56207 | 23790 ft | 304 kts | 237° |
| 2026-05-04 01:32 | 35.38559 | -116.57991 | 23793 ft | 314 kts | 216° |
| 2026-05-04 01:33 | 35.36403 | -116.58818 | 23791 ft | 333 kts | 195° |
| 2026-05-04 01:33 | 35.34074 | -116.59001 | 23802 ft | 337 kts | 193° |
| 2026-05-04 01:33 | 35.31734 | -116.59161 | 23811 ft | 337 kts | 194° |
| 2026-05-04 01:33 | 35.29399 | -116.59399 | 23818 ft | 336 kts | 196° |
| 2026-05-04 01:34 | 35.27117 | -116.59730 | 23825 ft | 333 kts | 198° |
| 2026-05-04 01:34 | 35.24838 | -116.60158 | 23824 ft | 330 kts | 199° |
| 2026-05-04 01:34 | 35.22590 | -116.60664 | 23815 ft | 327 kts | 201° |
| 2026-05-04 01:34 | 35.20444 | -116.61432 | 23802 ft | 314 kts | 216° |
| 2026-05-04 01:35 | 35.18770 | -116.63033 | 23802 ft | 306 kts | 229° |
| 2026-05-04 01:35 | 35.17039 | -116.64586 | 23790 ft | 319 kts | 210° |
| 2026-05-04 01:35 | 35.14881 | -116.65403 | 23759 ft | 328 kts | 203° |
| 2026-05-04 01:35 | 35.12664 | -116.66047 | 23771 ft | 328 kts | 202° |
| 2026-05-04 01:36 | 35.10440 | -116.66669 | 23743 ft | 326 kts | 202° |
| 2026-05-04 01:36 | 35.08221 | -116.67302 | 23768 ft | 327 kts | 202° |
| 2026-05-04 01:36 | 35.06008 | -116.67959 | 23777 ft | 328 kts | 203° |
| 2026-05-04 01:36 | 35.03821 | -116.68637 | 23782 ft | 328 kts | 204° |
| 2026-05-04 01:37 | 35.01594 | -116.69353 | 23782 ft | 326 kts | 204° |
| 2026-05-04 01:37 | 34.99439 | -116.70066 | 23781 ft | 325 kts | 204° |
| 2026-05-04 01:37 | 34.97258 | -116.70806 | 23783 ft | 326 kts | 205° |
| 2026-05-04 01:37 | 34.95075 | -116.71561 | 23782 ft | 326 kts | 205° |
| 2026-05-04 01:38 | 34.92901 | -116.72325 | 23783 ft | 325 kts | 205° |
| 2026-05-04 01:38 | 34.90733 | -116.73092 | 23785 ft | 324 kts | 205° |
| 2026-05-04 01:38 | 34.88563 | -116.73868 | 23786 ft | 325 kts | 205° |
| 2026-05-04 01:38 | 34.86392 | -116.74649 | 23786 ft | 325 kts | 205° |
| 2026-05-04 01:39 | 34.84223 | -116.75434 | 23770 ft | 326 kts | 205° |
| 2026-05-04 01:39 | 34.82043 | -116.76226 | 23774 ft | 327 kts | 205° |
| 2026-05-04 01:39 | 34.79860 | -116.77018 | 23706 ft | 327 kts | 205° |
| 2026-05-04 01:39 | 34.77690 | -116.77803 | 23448 ft | 322 kts | 205° |
| 2026-05-04 01:40 | 34.75544 | -116.78592 | 22787 ft | 322 kts | 205° |
| 2026-05-04 01:40 | 34.73401 | -116.79379 | 22084 ft | 321 kts | 204° |
| 2026-05-04 01:40 | 34.71265 | -116.80162 | 21425 ft | 319 kts | 204° |
| 2026-05-04 01:40 | 34.69169 | -116.80925 | 20765 ft | 318 kts | 203° |
| 2026-05-04 01:41 | 34.67031 | -116.81711 | 20145 ft | 317 kts | 203° |
| 2026-05-04 01:41 | 34.64951 | -116.82479 | 19595 ft | 315 kts | 202° |
| 2026-05-04 01:41 | 34.62854 | -116.83249 | 19005 ft | 314 kts | 202° |
| 2026-05-04 01:41 | 34.60769 | -116.84009 | 18424 ft | 313 kts | 201° |
| 2026-05-04 01:42 | 34.58685 | -116.84767 | 17824 ft | 312 kts | 201° |
| 2026-05-04 01:42 | 34.56604 | -116.85525 | 17278 ft | 316 kts | 200° |
| 2026-05-04 01:42 | 34.54491 | -116.86293 | 16989 ft | 315 kts | 200° |
| 2026-05-04 01:42 | 34.52416 | -116.87038 | 16910 ft | 309 kts | 199° |
| 2026-05-04 01:43 | 34.50347 | -116.87771 | 16872 ft | 310 kts | 201° |
| 2026-05-04 01:43 | 34.48286 | -116.88502 | 16844 ft | 308 kts | 201° |
| 2026-05-04 01:43 | 34.46226 | -116.89240 | 16835 ft | 309 kts | 201° |
| 2026-05-04 01:43 | 34.44160 | -116.89982 | 16828 ft | 310 kts | 201° |
| 2026-05-04 01:44 | 34.42097 | -116.90725 | 16825 ft | 309 kts | 201° |
| 2026-05-04 01:44 | 34.40030 | -116.91470 | 16728 ft | 310 kts | 201° |
| 2026-05-04 01:44 | 34.37970 | -116.92212 | 16398 ft | 308 kts | 201° |
| 2026-05-04 01:44 | 34.35919 | -116.92957 | 15815 ft | 307 kts | 201° |
| 2026-05-04 01:45 | 34.33870 | -116.93697 | 15326 ft | 306 kts | 201° |
| 2026-05-04 01:45 | 34.31853 | -116.94425 | 15055 ft | 298 kts | 201° |
| 2026-05-04 01:45 | 34.28836 | -116.97351 | 14882 ft | 276 kts | 246° |
| 2026-05-04 01:46 | 34.28199 | -116.99505 | 14897 ft | 277 kts | 250° |
| 2026-05-04 01:46 | 34.27592 | -117.01743 | 14896 ft | 280 kts | 250° |
| 2026-05-04 01:46 | 34.26951 | -117.03948 | 14891 ft | 277 kts | 248° |
| 2026-05-04 01:46 | 34.26259 | -117.06121 | 14898 ft | 278 kts | 246° |
| 2026-05-04 01:47 | 34.25505 | -117.08283 | 14890 ft | 279 kts | 245° |
| 2026-05-04 01:47 | 34.24703 | -117.10424 | 14890 ft | 279 kts | 244° |
| 2026-05-04 01:47 | 34.23867 | -117.12539 | 14908 ft | 277 kts | 243° |
| 2026-05-04 01:47 | 34.23007 | -117.14627 | 14905 ft | 280 kts | 242° |
| 2026-05-04 01:48 | 34.22118 | -117.16722 | 14911 ft | 280 kts | 242° |
| 2026-05-04 01:48 | 34.21222 | -117.18808 | 14992 ft | 281 kts | 241° |
| 2026-05-04 01:48 | 34.20311 | -117.20909 | 14980 ft | 283 kts | 241° |
| 2026-05-04 01:48 | 34.19393 | -117.23001 | 14972 ft | 281 kts | 240° |
| 2026-05-04 01:49 | 34.18471 | -117.25074 | 14969 ft | 280 kts | 240° |
| 2026-05-04 01:49 | 34.17540 | -117.27150 | 14977 ft | 282 kts | 240° |
| 2026-05-04 01:49 | 34.16605 | -117.29231 | 14973 ft | 281 kts | 240° |
| 2026-05-04 01:49 | 34.15676 | -117.31298 | 14966 ft | 280 kts | 240° |
| 2026-05-04 01:50 | 34.14746 | -117.33369 | 14969 ft | 281 kts | 240° |
| 2026-05-04 01:50 | 34.13812 | -117.35445 | 14968 ft | 281 kts | 240° |
| 2026-05-04 01:50 | 34.12883 | -117.37513 | 14964 ft | 280 kts | 240° |
| 2026-05-04 01:50 | 34.11954 | -117.39580 | 14965 ft | 281 kts | 240° |
| 2026-05-04 01:51 | 34.11018 | -117.41657 | 14962 ft | 281 kts | 240° |
| 2026-05-04 01:51 | 34.10085 | -117.43729 | 14971 ft | 281 kts | 240° |
| 2026-05-04 01:51 | 34.09153 | -117.45797 | 14973 ft | 281 kts | 240° |
| 2026-05-04 01:51 | 34.08221 | -117.47865 | 14993 ft | 281 kts | 241° |
| 2026-05-04 01:52 | 34.07347 | -117.49984 | 14984 ft | 281 kts | 243° |
| 2026-05-04 01:52 | 34.06542 | -117.52119 | 14921 ft | 274 kts | 244° |
| 2026-05-04 01:52 | 34.05791 | -117.54213 | 14471 ft | 273 kts | 245° |
| 2026-05-04 01:52 | 34.05051 | -117.56338 | 13916 ft | 276 kts | 245° |
| 2026-05-04 01:53 | 34.04324 | -117.58442 | 13373 ft | 275 kts | 244° |
| 2026-05-04 01:53 | 34.03549 | -117.60546 | 12849 ft | 274 kts | 244° |
| 2026-05-04 01:53 | 34.02808 | -117.62686 | 12364 ft | 278 kts | 246° |
| 2026-05-04 01:53 | 34.02171 | -117.64857 | 11952 ft | 275 kts | 249° |
| 2026-05-04 01:54 | 34.01613 | -117.67108 | 11103 ft | 280 kts | 252° |
| 2026-05-04 01:54 | 34.01152 | -117.69353 | 10363 ft | 273 kts | 255° |
| 2026-05-04 01:54 | 34.00762 | -117.71569 | 9601 ft | 267 kts | 256° |
| 2026-05-04 01:54 | 34.00421 | -117.73757 | 8804 ft | 263 kts | 257° |
| 2026-05-04 01:55 | 34.00130 | -117.75876 | 8425 ft | 258 kts | 258° |
| 2026-05-04 01:55 | 33.99852 | -117.78065 | 8002 ft | 257 kts | 259° |
| 2026-05-04 01:55 | 33.99623 | -117.80048 | 7996 ft | 223 kts | 259° |
| 2026-05-04 01:55 | 33.99429 | -117.81852 | 7656 ft | 214 kts | 260° |
| 2026-05-04 01:56 | 33.99233 | -117.83615 | 7227 ft | 207 kts | 260° |
| 2026-05-04 01:56 | 33.99032 | -117.85298 | 6976 ft | 208 kts | 261° |
| 2026-05-04 01:56 | 33.99356 | -117.87029 | 6569 ft | 227 kts | 296° |
| 2026-05-04 01:56 | 34.00265 | -117.88687 | 6061 ft | 236 kts | 292° |
| 2026-05-04 01:57 | 34.00440 | -117.90606 | 5175 ft | 234 kts | 260° |
| 2026-05-04 01:57 | 33.99995 | -117.92371 | 4988 ft | 206 kts | 249° |
| 2026-05-04 01:57 | 33.99533 | -117.93944 | 4653 ft | 192 kts | 252° |
| 2026-05-04 01:57 | 33.99145 | -117.95465 | 4010 ft | 190 kts | 253° |
| 2026-05-04 01:58 | 33.98845 | -117.97002 | 3478 ft | 184 kts | 258° |
| 2026-05-04 01:58 | 33.98601 | -117.98472 | 3275 ft | 173 kts | 257° |
| 2026-05-04 01:58 | 33.98367 | -117.99898 | 3274 ft | 179 kts | 257° |
| 2026-05-04 01:58 | 33.98189 | -118.01306 | 3694 ft | 168 kts | 262° |
| 2026-05-04 01:59 | 33.98000 | -118.02723 | 4105 ft | 164 kts | 259° |
| 2026-05-04 01:59 | 33.97780 | -118.04056 | 4658 ft | 165 kts | 258° |
| 2026-05-04 01:59 | 33.97554 | -118.05470 | 4893 ft | 185 kts | 259° |
| 2026-05-04 01:59 | 33.97330 | -118.07049 | 5137 ft | 194 kts | 259° |
| 2026-05-04 02:00 | 33.97075 | -118.08646 | 5128 ft | 195 kts | 256° |
| 2026-05-04 02:00 | 33.96775 | -118.10233 | 4913 ft | 192 kts | 256° |
| 2026-05-04 02:00 | 33.96528 | -118.11826 | 4496 ft | 192 kts | 259° |
| 2026-05-04 02:00 | 33.96331 | -118.13350 | 4163 ft | 182 kts | 259° |
| 2026-05-04 02:01 | 33.96126 | -118.14865 | 3820 ft | 185 kts | 259° |
| 2026-05-04 02:01 | 33.95928 | -118.16388 | 3441 ft | 183 kts | 260° |
| 2026-05-04 02:01 | 33.95798 | -118.17886 | 3133 ft | 177 kts | 263° |
| 2026-05-04 02:01 | 33.95692 | -118.19356 | 2832 ft | 178 kts | 262° |
| 2026-05-04 02:02 | 33.95546 | -118.20839 | 2750 ft | 175 kts | 261° |
| 2026-05-04 02:02 | 33.95397 | -118.22314 | 2778 ft | 177 kts | 261° |
| 2026-05-04 02:02 | 33.95254 | -118.23791 | 2632 ft | 179 kts | 263° |
| 2026-05-04 02:02 | 33.95097 | -118.25301 | 2262 ft | 177 kts | 261° |
| 2026-05-04 02:03 | 33.94944 | -118.26689 | 2022 ft | 157 kts | 260° |
| 2026-05-04 02:03 | 33.94797 | -118.27979 | 1820 ft | 157 kts | 260° |
| 2026-05-04 02:03 | 33.94693 | -118.28838 | 1672 ft | 156 kts | 260° |
| 2026-05-04 02:03 | 33.94548 | -118.30096 | 1426 ft | 151 kts | 261° |
| 2026-05-04 02:04 | 33.94414 | -118.31351 | 1277 ft | 151 kts | 263° |
| 2026-05-04 02:04 | 33.94317 | -118.32591 | 1111 ft | 151 kts | 264° |
| 2026-05-04 02:04 | 33.94201 | -118.33838 | 926 ft | 150 kts | 262° |
| 2026-05-04 02:04 | 33.94056 | -118.35074 | 669 ft | 147 kts | 263° |
| 2026-05-04 02:05 | 33.93939 | -118.36329 | 437 ft | 152 kts | 265° |
| 2026-05-04 02:05 | 33.93810 | -118.37582 | 260 ft | 148 kts | 262° |
| 2026-05-04 02:05 | 33.93685 | -118.38786 | 134 ft | 141 kts | 262° |
| 2026-05-04 02:05 | 33.93588 | -118.39718 | 126 ft | 78 kts | 263° |
| 2026-05-04 02:06 | 33.93561 | -118.40067 | 126 ft | 30 kts | 273° |
| 2026-05-04 02:06 | 33.93594 | -118.40273 | 125 ft | 20 kts | 295° |
| 2026-05-04 02:06 | 33.93622 | -118.40354 | 124 ft | 7 kts | 285° |
| 2026-05-04 02:06 | 33.93627 | -118.40393 | 124 ft | 5 kts | 274° |
| 2026-05-04 02:07 | 33.93624 | -118.40493 | 126 ft | 19 kts | 263° |
| 2026-05-04 02:07 | 33.93609 | -118.40620 | 124 ft | 9 kts | 262° |
| 2026-05-04 02:07 | 33.93603 | -118.40672 | 125 ft | 4 kts | 262° |
| 2026-05-04 02:07 | 33.93597 | -118.40722 | 125 ft | 12 kts | 263° |
| 2026-05-04 02:08 | 33.93598 | -118.40801 | 125 ft | 8 kts | 281° |
| 2026-05-04 02:08 | 33.93625 | -118.40876 | 124 ft | 11 kts | 315° |
| 2026-05-04 02:08 | 33.93695 | -118.40901 | 122 ft | 11 kts | 353° |
| 2026-05-04 02:08 | 33.93765 | -118.40910 | 124 ft | 9 kts | 354° |
| 2026-05-04 02:09 | 33.93804 | -118.40915 | 124 ft | 4 kts | 354° |
| 2026-05-04 02:09 | 33.93816 | -118.40916 | 123 ft | 0 kts | 354° |
| 2026-05-04 02:09 | 33.93825 | -118.40918 | 124 ft | 3 kts | 354° |
| 2026-05-04 02:09 | 33.93850 | -118.40921 | 123 ft | 1 kts | 354° |
| 2026-05-04 02:10 | 33.93865 | -118.40921 | 121 ft | 0 kts | 18° |
| 2026-05-04 02:10 | 33.93870 | -118.40889 | 124 ft | 7 kts | 86° |
| 2026-05-04 02:10 | 33.93880 | -118.40832 | 125 ft | 8 kts | 62° |
| 2026-05-04 02:10 | 33.93928 | -118.40809 | 123 ft | 7 kts | 352° |
| 2026-05-04 02:11 | 33.93976 | -118.40819 | 124 ft | 6 kts | 354° |
| 2026-05-04 02:11 | 33.94013 | -118.40823 | 123 ft | 4 kts | 354° |
| 2026-05-04 02:11 | 33.94027 | -118.40832 | 122 ft | 1 kts | 314° |
| 2026-05-04 02:11 | 33.94030 | -118.40851 | 123 ft | 3 kts | 269° |
| 2026-05-04 02:12 | 33.94029 | -118.40871 | 125 ft | 2 kts | 264° |
| 2026-05-04 02:12 | 33.94026 | -118.40909 | 123 ft | 5 kts | 264° |
| 2026-05-04 02:12 | 33.94024 | -118.40931 | 123 ft | 0 kts | 263° |
| 2026-05-04 02:12 | 33.94022 | -118.40947 | 125 ft | 5 kts | 264° |
| 2026-05-04 02:13 | 33.94022 | -118.40948 | 125 ft | 0 kts | 264° |